Terminal Aerodrome Forecast
Issued by NWS

Home | Current Version | Previous Version | Graphics & Text | Print | Product List | Glossary On
Versions: 1 2 3 4 5 6 7 8 9 10 11 12 13 14 15 16 17 18 19 20 21 22
212
FTUS41 KCLE 110309 AAB
TAFFDY
TAF AMD
KFDY 110309Z 1103/1124 27014KT P6SM SCT025 OVC060
      TEMPO 1104/1106 3SM -SHSN OVC025
     FM111600 28008KT P6SM BKN035=

USA.gov is the U.S. government's official web portal to all federal, state and local government web resources and services.